createdAt,value
2022-12-01T00:01:19.023Z,100629.66
2022-12-01T00:03:45.850Z,100626.06
2022-12-01T00:06:17.798Z,100625.47
2022-12-01T00:09:05.600Z,100629.53
2022-12-01T00:11:33.610Z,100619.84
2022-12-01T00:14:01.278Z,100623.06
2022-12-01T00:16:28.245Z,100627.00
2022-12-01T00:18:55.113Z,100618.06
2022-12-01T00:21:23.823Z,100619.00
2022-12-01T00:23:52.632Z,100625.47
2022-12-01T00:26:20.338Z,100625.56
2022-12-01T00:28:51.447Z,100630.75
2022-12-01T00:31:18.393Z,100628.19
2022-12-01T00:33:45.189Z,100622.91
2022-12-01T00:36:12.043Z,100625.41
2022-12-01T00:38:39.098Z,100623.88
2022-12-01T00:41:06.020Z,100635.94
2022-12-01T00:43:32.770Z,100629.41
2022-12-01T00:45:59.965Z,100639.44
2022-12-01T00:48:27.144Z,100632.88
2022-12-01T00:50:54.739Z,100625.84
2022-12-01T00:53:22.598Z,100626.09
2022-12-01T00:55:49.335Z,100633.25
2022-12-01T00:58:16.084Z,100630.59
2022-12-01T01:00:43.089Z,100634.16
2022-12-01T01:03:10.471Z,100644.47
2022-12-01T01:05:38.330Z,100644.28
2022-12-01T01:08:09.960Z,100645.00
2022-12-01T01:10:44.961Z,100650.34
2022-12-01T01:13:12.641Z,100649.25
2022-12-01T01:15:39.344Z,100638.69
2022-12-01T01:18:06.302Z,100641.34
2022-12-01T01:20:33.499Z,100640.31
2022-12-01T01:23:00.221Z,100652.47
2022-12-01T01:25:27.056Z,100649.91
2022-12-01T01:27:53.774Z,100653.22
2022-12-01T01:30:21.182Z,100648.53
2022-12-01T01:32:47.960Z,100651.44
2022-12-01T01:35:14.734Z,100654.78
2022-12-01T01:37:41.531Z,100654.66
2022-12-01T01:40:08.603Z,100654.50
2022-12-01T01:42:35.363Z,100656.28
2022-12-01T01:45:02.228Z,100664.19
2022-12-01T01:47:36.743Z,100672.00
2022-12-01T01:50:09.150Z,100671.31
2022-12-01T01:52:39.039Z,100684.13
2022-12-01T01:55:06.143Z,100676.69
2022-12-01T01:57:34.159Z,100668.91
2022-12-01T02:00:20.731Z,100668.06
2022-12-01T02:02:49.108Z,100667.81
2022-12-01T02:05:25.911Z,100671.72
2022-12-01T02:07:54.106Z,100665.44
2022-12-01T02:10:24.102Z,100666.69
2022-12-01T02:13:03.814Z,100657.97
2022-12-01T02:15:56.813Z,100656.59
2022-12-01T02:19:00.079Z,100656.34
2022-12-01T02:21:52.544Z,100650.13
2022-12-01T02:24:37.794Z,100650.88
2022-12-01T02:27:08.448Z,100644.41
2022-12-01T02:29:53.419Z,100641.88
2022-12-01T02:32:43.393Z,100635.00
2022-12-01T02:35:49.918Z,100640.09
2022-12-01T02:38:30.809Z,100637.69
2022-12-01T02:41:08.646Z,100632.00
2022-12-01T02:44:16.206Z,100626.13
2022-12-01T02:46:51.682Z,100632.75
2022-12-01T02:49:21.736Z,100627.34
2022-12-01T02:51:48.780Z,100638.00
2022-12-01T02:54:15.766Z,100625.84
2022-12-01T02:56:45.730Z,100626.13
2022-12-01T02:59:14.129Z,100633.25
2022-12-01T03:02:02.462Z,100632.31
2022-12-01T03:04:51.023Z,100641.56
2022-12-01T03:07:44.083Z,100631.69
2022-12-01T03:10:24.289Z,100639.53
2022-12-01T03:13:18.855Z,100624.66
2022-12-01T03:16:06.575Z,100630.41
2022-12-01T03:18:36.143Z,100627.13
2022-12-01T03:21:11.898Z,100627.81
2022-12-01T03:23:47.104Z,100621.34
2022-12-01T03:26:16.919Z,100627.44
2022-12-01T03:29:05.948Z,100624.34
2022-12-01T03:31:40.704Z,100628.16
2022-12-01T03:34:15.023Z,100622.63
2022-12-01T03:36:51.156Z,100615.75
2022-12-01T03:39:23.302Z,100619.88
2022-12-01T03:41:59.399Z,100615.22
2022-12-01T03:44:33.079Z,100617.09
2022-12-01T03:47:04.321Z,100616.16
2022-12-01T03:49:31.405Z,100615.59
2022-12-01T03:52:07.737Z,100610.06
2022-12-01T03:54:55.067Z,100621.34
2022-12-01T03:57:27.401Z,100622.91
2022-12-01T03:59:54.493Z,100623.81
2022-12-01T04:02:21.531Z,100623.41
2022-12-01T04:04:48.282Z,100632.06
2022-12-01T04:07:15.023Z,100627.81
2022-12-01T04:09:41.904Z,100624.78
2022-12-01T04:12:30.560Z,100627.66
2022-12-01T04:14:57.904Z,100627.47
2022-12-01T04:17:25.272Z,100627.47
2022-12-01T04:19:52.388Z,100640.81
2022-12-01T04:22:19.161Z,100634.69
2022-12-01T04:24:45.931Z,100639.19
2022-12-01T04:27:13.139Z,100640.75
2022-12-01T04:29:39.894Z,100635.53
2022-12-01T04:32:06.721Z,100636.78
2022-12-01T04:34:33.719Z,100632.31
2022-12-01T04:37:00.604Z,100628.75
2022-12-01T04:39:27.358Z,100630.25
2022-12-01T04:41:54.045Z,100626.03
2022-12-01T04:44:23.944Z,100638.22
2022-12-01T04:46:53.927Z,100635.75
2022-12-01T04:49:21.583Z,100629.16
2022-12-01T04:51:49.029Z,100629.59
2022-12-01T04:54:15.970Z,100629.00
2022-12-01T04:56:42.748Z,100629.63
2022-12-01T04:59:09.541Z,100635.50
2022-12-01T05:01:36.471Z,100635.06
2022-12-01T05:04:03.521Z,100625.16
2022-12-01T05:06:30.608Z,100629.63
2022-12-01T05:08:59.625Z,100633.81
2022-12-01T05:11:27.477Z,100629.06
2022-12-01T05:13:54.324Z,100633.81
2022-12-01T05:16:23.836Z,100627.63
2022-12-01T05:19:16.616Z,100636.69
2022-12-01T05:21:44.824Z,100634.97
2022-12-01T05:24:12.379Z,100634.75
2022-12-01T05:26:39.987Z,100632.72
2022-12-01T05:29:06.772Z,100636.91
2022-12-01T05:31:33.596Z,100623.81
2022-12-01T05:34:03.589Z,100634.94
2022-12-01T05:36:30.337Z,100631.88
2022-12-01T05:38:57.147Z,100629.78
2022-12-01T05:41:24.291Z,100636.56
2022-12-01T05:43:51.217Z,100633.16
2022-12-01T05:46:18.197Z,100630.38
2022-12-01T05:48:45.057Z,100633.72
2022-12-01T05:51:13.671Z,100631.69
2022-12-01T05:53:40.379Z,100629.25
2022-12-01T05:56:07.733Z,100632.25
2022-12-01T05:58:35.108Z,100639.69
2022-12-01T06:01:02.071Z,100638.16
2022-12-01T06:03:28.898Z,100640.16
2022-12-01T06:05:55.780Z,100647.66
2022-12-01T06:08:22.575Z,100633.66
2022-12-01T06:10:49.415Z,100630.25
2022-12-01T06:13:18.407Z,100630.59
2022-12-01T06:15:45.185Z,100635.69
2022-12-01T06:18:11.963Z,100635.84
2022-12-01T06:20:38.828Z,100633.72
2022-12-01T06:23:05.678Z,100634.91
2022-12-01T06:25:32.379Z,100642.44
2022-12-01T06:27:59.312Z,100644.88
2022-12-01T06:30:26.515Z,100642.13
2022-12-01T06:32:53.243Z,100634.91
2022-12-01T06:35:20.412Z,100646.28
2022-12-01T06:37:47.117Z,100647.91
2022-12-01T06:40:14.058Z,100647.91
2022-12-01T06:42:40.729Z,100651.88
2022-12-01T06:45:07.933Z,100646.28
2022-12-01T06:47:34.948Z,100643.81
2022-12-01T06:50:05.745Z,100647.13
2022-12-01T06:52:32.418Z,100650.88
2022-12-01T06:55:00.212Z,100646.22
2022-12-01T06:57:27.176Z,100653.94
2022-12-01T06:59:54.165Z,100656.63
2022-12-01T07:02:21.240Z,100659.28
2022-12-01T07:04:47.988Z,100661.66
2022-12-01T07:07:14.866Z,100655.56
2022-12-01T07:09:41.794Z,100659.13
2022-12-01T07:12:08.640Z,100670.56
2022-12-01T07:14:35.889Z,100671.97
2022-12-01T07:17:02.688Z,100668.72
2022-12-01T07:19:29.604Z,100671.59
2022-12-01T07:21:56.404Z,100672.38
2022-12-01T07:24:23.268Z,100675.94
2022-12-01T07:26:49.965Z,100676.38
2022-12-01T07:29:16.888Z,100676.94
2022-12-01T07:31:43.944Z,100679.25
2022-12-01T07:34:12.778Z,100676.28
2022-12-01T07:36:39.493Z,100686.06
2022-12-01T07:39:09.354Z,100688.00
2022-12-01T07:41:36.350Z,100684.50
2022-12-01T07:44:03.533Z,100686.53
2022-12-01T07:46:30.330Z,100682.34
2022-12-01T07:48:57.430Z,100687.78
2022-12-01T07:51:25.358Z,100692.97
2022-12-01T07:53:55.810Z,100697.47
2022-12-01T07:56:23.015Z,100693.81
2022-12-01T07:58:49.776Z,100698.63
2022-12-01T08:01:19.641Z,100693.13
2022-12-01T08:03:51.321Z,100693.75
2022-12-01T08:06:19.110Z,100694.66
2022-12-01T08:08:46.407Z,100700.19
2022-12-01T08:11:24.242Z,100695.94
2022-12-01T08:13:52.308Z,100697.00
2022-12-01T08:16:20.937Z,100693.44
2022-12-01T08:18:48.048Z,100695.22
2022-12-01T08:21:17.327Z,100693.03
2022-12-01T08:23:44.638Z,100691.97
2022-12-01T08:26:14.270Z,100688.88
2022-12-01T08:28:41.208Z,100694.38
2022-12-01T08:31:19.557Z,100696.00
2022-12-01T08:33:47.463Z,100689.88
2022-12-01T08:36:15.291Z,100692.44
2022-12-01T08:38:45.771Z,100691.41
2022-12-01T08:41:13.424Z,100685.53
2022-12-01T08:43:57.368Z,100685.47
2022-12-01T08:46:26.603Z,100686.94
2022-12-01T08:48:54.926Z,100685.16
2022-12-01T08:51:21.625Z,100691.88
2022-12-01T08:53:49.901Z,100700.25
2022-12-01T08:56:41.234Z,100707.13
2022-12-01T08:59:08.505Z,100709.59
2022-12-01T09:01:35.981Z,100705.00
2022-12-01T09:04:06.553Z,100715.38
2022-12-01T09:06:35.491Z,100706.56
2022-12-01T09:09:02.342Z,100704.72
2022-12-01T09:11:29.031Z,100714.13
2022-12-01T09:13:55.684Z,100704.63
2022-12-01T09:16:23.608Z,100708.03
2022-12-01T09:18:50.455Z,100712.50
2022-12-01T09:21:20.206Z,100710.66
2022-12-01T09:23:47.091Z,100709.66
2022-12-01T09:26:18.335Z,100711.38
2022-12-01T09:28:46.262Z,100711.44
2022-12-01T09:31:15.020Z,100714.75
2022-12-01T09:33:41.686Z,100710.34
2022-12-01T09:36:08.984Z,100705.81
2022-12-01T09:38:36.966Z,100705.59
2022-12-01T09:41:11.883Z,100707.38
2022-12-01T09:43:42.035Z,100692.25
2022-12-01T09:46:14.409Z,100712.25
2022-12-01T09:48:46.510Z,100705.19
2022-12-01T09:51:18.176Z,100697.03
2022-12-01T09:53:45.033Z,100702.06
2022-12-01T09:56:23.185Z,100700.44
2022-12-01T09:58:53.090Z,100693.31
2022-12-01T10:01:30.412Z,100699.19
2022-12-01T10:03:59.920Z,100690.28
2022-12-01T10:06:36.584Z,100695.69
2022-12-01T10:09:16.048Z,100696.56
2022-12-01T10:11:44.665Z,100696.56
2022-12-01T10:14:20.368Z,100688.56
2022-12-01T10:16:50.369Z,100683.28
2022-12-01T10:19:36.109Z,100690.41
2022-12-01T10:22:20.719Z,100680.81
2022-12-01T10:24:57.623Z,100672.38
2022-12-01T10:27:43.340Z,100675.19
2022-12-01T10:30:15.484Z,100669.25
2022-12-01T10:32:54.209Z,100662.03
2022-12-01T10:35:23.577Z,100658.31
2022-12-01T10:37:55.674Z,100656.75
2022-12-01T10:40:23.048Z,100657.09
2022-12-01T10:42:50.887Z,100655.47
2022-12-01T10:45:29.479Z,100657.41
2022-12-01T10:48:11.480Z,100646.88
2022-12-01T10:50:38.231Z,100648.06
2022-12-01T10:53:05.159Z,100643.31
2022-12-01T10:55:43.443Z,100644.09
2022-12-01T10:58:15.684Z,100641.97
2022-12-01T11:00:59.705Z,100640.03
2022-12-01T11:03:33.546Z,100631.34
2022-12-01T11:06:05.902Z,100626.69
2022-12-01T11:38:13.348Z,100599.16
2022-12-01T11:40:48.933Z,100606.28
2022-12-01T11:43:27.152Z,100600.84
2022-12-01T11:45:54.871Z,100600.34
2022-12-01T11:48:28.604Z,100593.03
2022-12-01T11:51:04.629Z,100587.56
2022-12-01T11:53:34.765Z,100597.88
2022-12-01T11:56:20.939Z,100590.38
2022-12-01T11:58:48.782Z,100589.00
2022-12-01T12:01:43.710Z,100589.53
2022-12-01T12:04:29.291Z,100576.84
2022-12-01T12:07:18.980Z,100571.69
2022-12-01T12:09:49.700Z,100574.31
2022-12-01T12:12:33.574Z,100564.56
2022-12-01T12:15:33.653Z,100577.88
2022-12-01T12:18:19.732Z,100570.56
2022-12-01T12:21:01.376Z,100565.88
2022-12-01T12:23:55.576Z,100563.41
2022-12-01T12:26:30.963Z,100572.88
2022-12-01T12:29:17.756Z,100563.84
2022-12-01T12:31:46.980Z,100555.63
2022-12-01T12:34:22.647Z,100551.38
2022-12-01T12:37:09.566Z,100555.47
2022-12-01T12:40:11.210Z,100560.56
2022-12-01T12:43:04.116Z,100551.38
2022-12-01T12:45:53.687Z,100558.50
2022-12-01T12:51:43.664Z,100546.69
2022-12-01T12:54:22.464Z,100543.03
2022-12-01T12:56:52.980Z,100537.91
2022-12-01T12:59:24.851Z,100545.91
2022-12-01T13:02:04.117Z,100554.00
2022-12-01T13:04:49.048Z,100545.16
2022-12-01T13:07:15.821Z,100553.66
2022-12-01T13:09:45.816Z,100552.81
2022-12-01T13:12:17.163Z,100550.06
2022-12-01T13:14:47.324Z,100552.63
2022-12-01T13:17:21.294Z,100544.06
2022-12-01T13:19:48.719Z,100552.44
2022-12-01T13:22:17.760Z,100547.16
2022-12-01T13:24:44.641Z,100547.78
2022-12-01T13:27:11.380Z,100546.69
2022-12-01T13:29:43.904Z,100545.06
2022-12-01T13:32:33.315Z,100546.88
2022-12-01T13:35:00.748Z,100540.25
2022-12-01T13:37:31.017Z,100548.09
2022-12-01T13:40:10.796Z,100541.78
2022-12-01T13:42:39.695Z,100542.63
2022-12-01T13:45:17.330Z,100544.97
2022-12-01T13:47:46.913Z,100544.88
2022-12-01T13:50:46.194Z,100543.88
2022-12-01T13:53:18.871Z,100539.81
2022-12-01T13:56:17.450Z,100532.94
2022-12-01T13:58:47.479Z,100531.47
2022-12-01T14:01:20.594Z,100528.72
2022-12-01T14:03:56.957Z,100531.47
2022-12-01T14:06:35.785Z,100520.16
2022-12-01T14:09:27.534Z,100528.13
2022-12-01T14:12:02.711Z,100524.66
2022-12-01T14:14:35.685Z,100533.31
2022-12-01T14:17:03.354Z,100527.53
2022-12-01T14:19:47.019Z,100532.22
2022-12-01T14:22:40.349Z,100524.16
2022-12-01T14:25:22.568Z,100529.41
2022-12-01T14:27:54.898Z,100534.69
2022-12-01T14:30:45.178Z,100536.59
2022-12-01T14:33:39.499Z,100530.44
2022-12-01T14:36:20.630Z,100534.69
2022-12-01T14:38:47.851Z,100530.09
2022-12-01T14:41:28.185Z,100526.97
2022-12-01T14:44:05.365Z,100522.19
2022-12-01T14:46:44.141Z,100518.78
2022-12-01T14:49:17.851Z,100532.38
2022-12-01T14:51:47.045Z,100532.63
2022-12-01T14:54:21.318Z,100528.25
2022-12-01T14:56:51.593Z,100527.38
2022-12-01T14:59:24.179Z,100532.81
2022-12-01T15:01:53.450Z,100531.59
2022-12-01T15:04:20.309Z,100528.81
2022-12-01T15:06:47.305Z,100531.47
2022-12-01T15:09:33.389Z,100532.19
2022-12-01T15:12:06.883Z,100534.81
2022-12-01T15:14:38.851Z,100531.31
2022-12-01T15:17:06.920Z,100529.75
2022-12-01T15:19:36.743Z,100527.78
2022-12-01T15:22:12.796Z,100525.22
2022-12-01T15:24:39.740Z,100517.94
2022-12-01T15:27:23.972Z,100527.78
2022-12-01T15:29:50.944Z,100518.34
2022-12-01T15:32:21.161Z,100512.13
2022-12-01T15:34:51.149Z,100515.72
2022-12-01T15:37:19.893Z,100519.81
2022-12-01T15:39:52.789Z,100515.38
2022-12-01T15:42:30.165Z,100514.34
2022-12-01T15:45:02.664Z,100514.47
2022-12-01T15:47:44.371Z,100517.75
2022-12-01T15:50:45.966Z,100525.84
2022-12-01T15:53:29.415Z,100519.13
2022-12-01T15:55:59.210Z,100518.00
2022-12-01T15:58:31.740Z,100525.00
2022-12-01T16:01:05.007Z,100521.53
2022-12-01T16:03:33.795Z,100525.00
2022-12-01T16:06:00.573Z,100527.53
2022-12-01T16:08:27.921Z,100517.88
2022-12-01T16:11:14.481Z,100521.00
2022-12-01T16:13:57.055Z,100521.75
2022-12-01T16:16:26.647Z,100526.91
2022-12-01T16:18:55.624Z,100528.41
2022-12-01T16:21:23.986Z,100520.38
2022-12-01T16:24:04.976Z,100528.56
2022-12-01T16:26:35.241Z,100529.25
2022-12-01T16:29:02.201Z,100523.88
2022-12-01T16:31:29.924Z,100531.03
2022-12-01T16:34:06.570Z,100528.31
2022-12-01T16:36:40.820Z,100535.19
2022-12-01T16:39:08.017Z,100528.47
2022-12-01T16:41:38.440Z,100528.31
2022-12-01T16:44:27.494Z,100527.38
2022-12-01T16:46:52.861Z,100529.16
2022-12-01T16:49:19.623Z,100527.19
2022-12-01T16:52:11.156Z,100523.59
2022-12-01T16:54:33.170Z,100519.53
2022-12-01T16:56:59.980Z,100523.13
2022-12-01T16:59:26.906Z,100518.72
2022-12-01T17:01:53.868Z,100520.66
2022-12-01T17:04:20.718Z,100520.66
2022-12-01T17:06:47.479Z,100525.16
2022-12-01T17:09:14.358Z,100518.88
2022-12-01T17:11:41.326Z,100517.94
2022-12-01T17:14:08.061Z,100528.41
2022-12-01T17:16:36.016Z,100542.25
2022-12-01T17:19:02.998Z,100534.41
2022-12-01T17:21:30.356Z,100538.84
2022-12-01T17:23:57.187Z,100535.38
2022-12-01T17:26:24.107Z,100543.19
2022-12-01T17:28:54.010Z,100533.69
2022-12-01T17:31:20.932Z,100539.78
2022-12-01T17:33:48.042Z,100538.00
2022-12-01T17:36:15.588Z,100534.81
2022-12-01T17:38:45.853Z,100543.75
2022-12-01T18:08:16.306Z,100553.06
2022-12-01T18:10:43.185Z,100542.34
2022-12-01T18:13:10.171Z,100543.19
2022-12-01T18:15:39.342Z,100546.50
2022-12-01T18:18:06.158Z,100546.41
2022-12-01T18:20:32.881Z,100542.06
2022-12-01T18:22:59.643Z,100541.13
2022-12-01T18:25:26.336Z,100533.50
2022-12-01T18:27:58.224Z,100543.75
2022-12-01T18:30:25.006Z,100541.22
2022-12-01T18:32:51.739Z,100542.91
2022-12-01T18:35:18.459Z,100539.38
2022-12-01T18:37:45.167Z,100537.56
2022-12-01T18:40:12.653Z,100537.56
2022-12-01T18:42:39.499Z,100535.69
2022-12-01T18:45:06.579Z,100539.38
2022-12-01T18:47:33.321Z,100532.47
2022-12-01T18:50:00.469Z,100526.53
2022-12-01T18:52:27.152Z,100532.75
2022-12-01T18:54:54.082Z,100527.53
2022-12-01T18:57:20.981Z,100530.00
2022-12-01T18:59:47.717Z,100525.50
2022-12-01T19:02:14.520Z,100524.47
2022-12-01T19:04:41.393Z,100515.63
2022-12-01T19:07:08.138Z,100514.88
2022-12-01T19:09:34.946Z,100508.66
2022-12-01T19:12:01.783Z,100506.72
2022-12-01T19:14:29.175Z,100507.59
2022-12-01T19:16:56.392Z,100511.91
2022-12-01T19:19:23.159Z,100509.94
2022-12-01T19:21:50.350Z,100510.88
2022-12-01T19:24:17.232Z,100512.66
2022-12-01T19:26:44.010Z,100514.34
2022-12-01T19:29:10.732Z,100504.56
2022-12-01T19:31:37.854Z,100506.28
2022-12-01T19:34:04.766Z,100508.25
2022-12-01T19:36:31.718Z,100501.94
2022-12-01T19:39:00.468Z,100505.53
2022-12-01T19:41:28.267Z,100504.56
2022-12-01T19:43:55.292Z,100506.19
2022-12-01T19:46:24.230Z,100502.78
2022-12-01T19:49:00.392Z,100509.06
2022-12-01T19:51:37.091Z,100504.84
2022-12-01T19:54:05.217Z,100509.00
2022-12-01T19:56:32.357Z,100505.72
2022-12-01T19:58:59.458Z,100502.78
2022-12-01T20:01:27.031Z,100504.16
2022-12-01T20:03:54.806Z,100507.72
2022-12-01T20:06:24.277Z,100506.97
2022-12-01T20:08:51.669Z,100501.44
2022-12-01T20:11:18.633Z,100509.25
2022-12-01T20:13:46.887Z,100508.47
2022-12-01T20:16:16.123Z,100507.59
2022-12-01T20:18:43.137Z,100507.88
2022-12-01T20:21:19.199Z,100516.81
2022-12-01T20:23:58.758Z,100511.91
2022-12-01T20:26:30.801Z,100517.41
2022-12-01T20:29:07.378Z,100511.56
2022-12-01T20:31:34.750Z,100510.53
2022-12-01T20:34:04.727Z,100515.72
2022-12-01T20:36:31.863Z,100521.94
2022-12-01T20:38:58.705Z,100516.47
2022-12-01T20:41:25.645Z,100512.91
2022-12-01T20:43:52.460Z,100517.31
2022-12-01T20:46:19.255Z,100519.31
2022-12-01T20:48:46.011Z,100510.38
2022-12-01T20:51:14.170Z,100512.84
2022-12-01T20:53:54.494Z,100507.63
2022-12-01T20:56:28.185Z,100511.97
2022-12-01T20:58:55.075Z,100503.06
2022-12-01T21:01:25.144Z,100505.72
2022-12-01T21:03:52.637Z,100509.94
2022-12-01T21:06:20.464Z,100507.31
2022-12-01T21:08:48.630Z,100505.41
2022-12-01T21:11:40.416Z,100497.91
2022-12-01T21:14:11.319Z,100492.66
2022-12-01T21:16:38.990Z,100493.38
2022-12-01T21:19:13.352Z,100495.28
2022-12-01T21:21:41.045Z,100498.88
2022-12-01T21:24:07.741Z,100500.44
2022-12-01T21:26:38.495Z,100504.06
2022-12-01T21:29:24.924Z,100494.25
2022-12-01T21:31:54.454Z,100500.56
2022-12-01T21:34:23.937Z,100506.88
2022-12-01T21:36:53.105Z,100502.53
2022-12-01T21:39:21.948Z,100494.72
2022-12-01T21:41:50.428Z,100492.94
2022-12-01T21:44:20.443Z,100496.63
2022-12-01T21:46:49.371Z,100498.47
2022-12-01T21:49:33.674Z,100507.16
2022-12-01T21:52:00.980Z,100500.94
2022-12-01T21:54:28.737Z,100506.03
2022-12-01T21:56:57.782Z,100498.94
2022-12-01T21:59:24.654Z,100496.16
2022-12-01T22:01:59.386Z,100495.47
2022-12-01T22:04:30.149Z,100503.50
2022-12-01T22:06:58.008Z,100498.22
2022-12-01T22:09:35.194Z,100495.66
2022-12-01T22:12:28.302Z,100489.81
2022-12-01T22:15:00.319Z,100492.25
2022-12-01T22:17:27.841Z,100488.78
2022-12-01T22:19:59.778Z,100484.72
2022-12-01T22:22:28.570Z,100489.81
2022-12-01T22:25:13.557Z,100484.63
2022-12-01T22:27:40.966Z,100483.97
2022-12-01T22:30:07.804Z,100485.63
2022-12-01T22:32:55.866Z,100484.81
2022-12-01T22:35:29.795Z,100481.31
2022-12-01T22:38:33.028Z,100475.88
2022-12-01T22:41:17.058Z,100475.88
2022-12-01T22:43:44.924Z,100475.03
2022-12-01T22:46:19.012Z,100473.22
2022-12-01T22:48:48.111Z,100479.78
2022-12-01T22:51:26.903Z,100475.88
2022-12-01T22:54:01.658Z,100479.00
2022-12-01T22:56:49.702Z,100480.22
2022-12-01T22:59:20.240Z,100473.72
2022-12-01T23:01:52.713Z,100473.63
2022-12-01T23:04:38.794Z,100469.69
2022-12-01T23:07:31.206Z,100467.03
2022-12-01T23:10:05.078Z,100472.00
2022-12-01T23:12:33.547Z,100468.53
2022-12-01T23:15:11.557Z,100471.72
2022-12-01T23:17:38.953Z,100466.16
2022-12-01T23:20:20.818Z,100474.84
2022-12-01T23:22:47.922Z,100472.00
2022-12-01T23:25:19.525Z,100466.09
2022-12-01T23:27:48.310Z,100466.66
2022-12-01T23:30:16.483Z,100464.47
2022-12-01T23:32:44.111Z,100464.22
2022-12-01T23:35:16.170Z,100465.31
2022-12-01T23:37:44.314Z,100455.47
2022-12-01T23:40:36.475Z,100455.53
2022-12-01T23:43:11.859Z,100445.84
2022-12-01T23:45:38.935Z,100444.63
2022-12-01T23:48:11.229Z,100443.72
2022-12-01T23:50:38.126Z,100446.34
2022-12-01T23:53:04.837Z,100442.75
2022-12-01T23:55:31.877Z,100437.41
2022-12-01T23:57:59.209Z,100439.09
